createdAt,value
2022-11-07T00:01:55.960Z,100022.63
2022-11-07T00:04:23.665Z,100022.13
2022-11-07T00:06:50.535Z,100024.44
2022-11-07T00:09:17.916Z,100018.44
2022-11-07T00:11:44.833Z,100026.44
2022-11-07T00:14:13.241Z,100021.25
2022-11-07T00:16:39.931Z,100013.91
2022-11-07T00:19:08.885Z,100021.81
2022-11-07T00:21:38.349Z,100021.56
2022-11-07T00:24:10.345Z,100022.53
2022-11-07T00:27:03.644Z,100018.47
2022-11-07T00:29:30.287Z,100023.88
2022-11-07T00:32:02.830Z,100020.19
2022-11-07T00:34:30.697Z,100026.47
2022-11-07T00:36:57.575Z,100028.94
2022-11-07T00:39:26.132Z,100028.94
2022-11-07T00:41:52.886Z,100040.78
2022-11-07T00:44:19.810Z,100036.69
2022-11-07T00:46:48.382Z,100041.25
2022-11-07T00:49:15.336Z,100041.50
2022-11-07T00:51:42.101Z,100042.59
2022-11-07T00:54:09.366Z,100029.28
2022-11-07T00:56:36.226Z,100055.81
2022-11-07T00:59:06.991Z,100069.47
2022-11-07T01:01:35.344Z,100069.44
2022-11-07T01:04:21.218Z,100076.09
2022-11-07T01:06:49.936Z,100064.19
2022-11-07T01:09:21.562Z,100074.78
2022-11-07T01:11:56.467Z,100078.22
2022-11-07T01:14:24.200Z,100069.84
2022-11-07T01:16:51.618Z,100072.06
2022-11-07T01:19:19.458Z,100079.94
2022-11-07T01:21:46.593Z,100085.75
2022-11-07T01:24:15.103Z,100068.13
2022-11-07T01:26:43.483Z,100082.16
2022-11-07T01:29:10.639Z,100079.84
2022-11-07T01:31:37.351Z,100078.97
2022-11-07T01:34:05.104Z,100079.22
2022-11-07T01:36:32.413Z,100072.47
2022-11-07T01:39:00.901Z,100071.97
2022-11-07T01:41:30.411Z,100086.09
2022-11-07T01:44:03.064Z,100092.41
2022-11-07T01:46:34.472Z,100085.38
2022-11-07T01:49:29.494Z,100088.09
2022-11-07T01:51:59.565Z,100088.50
2022-11-07T01:54:38.371Z,100088.84
2022-11-07T01:57:14.337Z,100087.00
2022-11-07T02:00:10.398Z,100086.38
2022-11-07T02:02:38.196Z,100080.34
2022-11-07T02:05:07.478Z,100078.25
2022-11-07T02:07:35.303Z,100090.09
2022-11-07T02:10:04.197Z,100087.88
2022-11-07T02:12:32.026Z,100078.22
2022-11-07T02:15:00.156Z,100080.72
2022-11-07T02:17:28.214Z,100082.31
2022-11-07T02:19:56.864Z,100088.97
2022-11-07T02:22:49.366Z,100088.22
2022-11-07T02:25:19.674Z,100094.78
2022-11-07T02:27:49.809Z,100098.94
2022-11-07T02:30:23.802Z,100100.66
2022-11-07T02:32:50.707Z,100091.06
2022-11-07T02:35:43.502Z,100087.72
2022-11-07T02:38:36.975Z,100091.56
2022-11-07T02:41:09.296Z,100097.59
2022-11-07T02:43:38.766Z,100078.34
2022-11-07T02:46:10.542Z,100070.84
2022-11-07T02:48:47.987Z,100082.53
2022-11-07T02:51:15.140Z,100081.16
2022-11-07T02:53:43.341Z,100073.66
2022-11-07T02:56:11.996Z,100078.00
2022-11-07T02:58:39.657Z,100088.72
2022-11-07T03:01:13.370Z,100083.88
2022-11-07T03:03:43.894Z,100082.41
2022-11-07T03:06:38.369Z,100077.34
2022-11-07T03:09:05.006Z,100079.78
2022-11-07T03:11:31.697Z,100075.00
2022-11-07T03:13:58.973Z,100073.38
2022-11-07T03:16:26.781Z,100076.00
2022-11-07T03:18:59.518Z,100077.47
2022-11-07T03:21:26.439Z,100074.63
2022-11-07T03:23:53.178Z,100066.94
2022-11-07T03:26:21.540Z,100073.00
2022-11-07T03:28:49.275Z,100066.59
2022-11-07T03:31:17.512Z,100066.13
2022-11-07T03:33:44.674Z,100062.13
2022-11-07T03:36:12.584Z,100059.38
2022-11-07T03:38:39.339Z,100066.84
2022-11-07T03:41:08.360Z,100065.38
2022-11-07T03:44:01.871Z,100055.94
2022-11-07T03:46:29.980Z,100058.69
2022-11-07T03:48:58.226Z,100054.38
2022-11-07T03:51:26.307Z,100051.06
2022-11-07T03:53:53.779Z,100062.16
2022-11-07T03:56:21.606Z,100049.41
2022-11-07T03:58:49.609Z,100042.84
2022-11-07T04:01:19.143Z,100038.88
2022-11-07T04:03:56.039Z,100045.97
2022-11-07T04:06:24.448Z,100039.59
2022-11-07T04:08:54.589Z,100042.69
2022-11-07T04:11:42.902Z,100051.34
2022-11-07T04:14:29.182Z,100032.13
2022-11-07T04:17:16.018Z,100037.03
2022-11-07T04:19:43.039Z,100036.88
2022-11-07T04:22:11.168Z,100022.53
2022-11-07T04:24:45.690Z,100037.34
2022-11-07T04:27:35.558Z,100036.00
2022-11-07T04:30:27.387Z,100031.13
2022-11-07T04:33:05.916Z,100037.72
2022-11-07T04:35:35.792Z,100036.84
2022-11-07T04:38:05.254Z,100034.94
2022-11-07T04:40:33.170Z,100029.69
2022-11-07T04:43:03.518Z,100033.47
2022-11-07T04:45:31.730Z,100032.59
2022-11-07T04:48:00.341Z,100042.09
2022-11-07T04:50:29.499Z,100029.50
2022-11-07T04:52:57.853Z,100027.78
2022-11-07T04:55:28.574Z,100039.44
2022-11-07T04:57:55.383Z,100050.28
2022-11-07T05:00:27.412Z,100044.09
2022-11-07T05:02:56.421Z,100050.09
2022-11-07T05:05:25.371Z,100034.69
2022-11-07T05:07:53.209Z,100041.66
2022-11-07T05:10:28.558Z,100041.91
2022-11-07T05:12:56.553Z,100048.34
2022-11-07T05:15:24.578Z,100035.59
2022-11-07T05:17:58.691Z,100035.34
2022-11-07T05:20:34.533Z,100042.91
2022-11-07T05:23:21.768Z,100031.91
2022-11-07T05:25:52.454Z,100038.22
2022-11-07T05:28:31.214Z,100030.88
2022-11-07T05:31:04.772Z,100048.09
2022-11-07T05:33:57.221Z,100042.78
2022-11-07T05:36:24.934Z,100052.44
2022-11-07T05:38:54.430Z,100064.25
2022-11-07T05:41:47.396Z,100043.34
2022-11-07T05:44:23.648Z,100030.34
2022-11-07T05:50:15.560Z,100043.94
2022-11-07T05:53:11.395Z,100048.63
2022-11-07T05:55:39.075Z,100037.28
2022-11-07T05:58:12.439Z,100031.22
2022-11-07T06:00:44.214Z,100038.22
2022-11-07T06:03:18.431Z,100032.59
2022-11-07T06:05:46.410Z,100040.94
2022-11-07T06:08:16.283Z,100041.94
2022-11-07T06:10:44.518Z,100039.75
2022-11-07T06:13:16.375Z,100024.16
2022-11-07T06:15:54.911Z,100033.88
2022-11-07T06:18:25.178Z,100036.75
2022-11-07T06:20:57.568Z,100042.03
2022-11-07T06:23:31.514Z,100035.94
2022-11-07T06:26:44.455Z,100032.78
2022-11-07T06:29:12.985Z,100048.47
2022-11-07T06:32:09.718Z,100041.44
2022-11-07T06:34:56.963Z,100035.06
2022-11-07T06:37:35.421Z,100051.47
2022-11-07T06:43:07.414Z,100044.16
2022-11-07T06:45:35.164Z,100058.41
2022-11-07T06:48:08.645Z,100053.19
2022-11-07T06:50:45.759Z,100057.19
2022-11-07T06:53:14.501Z,100056.91
2022-11-07T06:55:41.804Z,100069.53
2022-11-07T06:58:11.836Z,100067.41
2022-11-07T07:00:39.531Z,100062.19
2022-11-07T07:03:32.867Z,100063.16
2022-11-07T07:06:07.816Z,100059.81
2022-11-07T07:08:37.728Z,100067.56
2022-11-07T07:11:11.229Z,100078.63
2022-11-07T07:13:38.647Z,100065.69
2022-11-07T07:16:10.915Z,100076.16
2022-11-07T07:18:40.630Z,100085.47
2022-11-07T07:21:16.799Z,100085.31
2022-11-07T07:23:50.935Z,100079.47
2022-11-07T07:26:23.210Z,100085.41
2022-11-07T07:28:55.260Z,100087.63
2022-11-07T07:31:55.986Z,100092.38
2022-11-07T07:34:24.875Z,100096.94
2022-11-07T07:36:53.972Z,100098.41
2022-11-07T07:39:27.744Z,100091.50
2022-11-07T07:41:56.067Z,100097.94
2022-11-07T07:44:26.487Z,100098.00
2022-11-07T07:47:11.454Z,100099.31
2022-11-07T07:49:40.664Z,100088.69
2022-11-07T07:52:12.912Z,100104.34
2022-11-07T07:54:46.391Z,100114.06
2022-11-07T07:57:23.657Z,100117.88
2022-11-07T08:00:05.290Z,100113.56
2022-11-07T08:02:34.941Z,100114.34
2022-11-07T08:05:11.221Z,100113.97
2022-11-07T08:07:58.778Z,100101.69
2022-11-07T08:10:41.426Z,100123.03
2022-11-07T08:13:10.852Z,100124.38
2022-11-07T08:15:41.762Z,100147.97
2022-11-07T08:18:16.241Z,100135.97
2022-11-07T08:20:47.609Z,100133.00
2022-11-07T08:23:18.716Z,100147.31
2022-11-07T08:25:57.390Z,100152.97
2022-11-07T08:28:43.451Z,100167.34
2022-11-07T08:31:28.668Z,100171.41
2022-11-07T08:34:06.252Z,100182.41
2022-11-07T08:36:59.844Z,100193.56
2022-11-07T08:39:35.243Z,100201.72
2022-11-07T08:42:06.464Z,100195.56
2022-11-07T08:45:06.078Z,100212.78
2022-11-07T08:47:33.272Z,100224.16
2022-11-07T08:50:07.306Z,100238.75
2022-11-07T08:52:39.382Z,100240.56
2022-11-07T08:55:14.145Z,100254.53
2022-11-07T08:57:41.774Z,100258.47
2022-11-07T09:00:14.584Z,100264.63
2022-11-07T09:03:23.866Z,100253.56
2022-11-07T09:08:21.380Z,100272.44
2022-11-07T09:11:16.112Z,100263.28
2022-11-07T09:13:59.078Z,100269.63
2022-11-07T09:16:36.826Z,100275.97
2022-11-07T09:19:07.926Z,100283.13
2022-11-07T09:21:37.116Z,100295.81
2022-11-07T09:24:13.899Z,100303.22
2022-11-07T09:26:48.559Z,100316.00
2022-11-07T09:29:26.525Z,100325.69
2022-11-07T09:32:11.882Z,100328.06
2022-11-07T09:35:04.749Z,100346.16
2022-11-07T09:37:46.128Z,100346.38
2022-11-07T09:41:01.700Z,100351.88
2022-11-07T09:43:48.537Z,100380.03
2022-11-07T09:46:41.861Z,100374.84
2022-11-07T09:52:49.643Z,100391.94
2022-11-07T09:55:31.354Z,100399.38
2022-11-07T09:58:39.723Z,100401.84
2022-11-07T10:01:22.483Z,100411.25
2022-11-07T10:04:22.799Z,100418.81
2022-11-07T10:07:05.045Z,100438.09
2022-11-07T10:10:01.816Z,100435.91
2022-11-07T10:13:08.285Z,100444.97
2022-11-07T10:15:56.769Z,100461.66
2022-11-07T10:18:47.816Z,100472.63
2022-11-07T10:21:38.167Z,100463.78
2022-11-07T10:24:29.205Z,100459.28
2022-11-07T10:29:55.789Z,100465.34
2022-11-07T10:32:27.379Z,100484.72
2022-11-07T10:35:04.546Z,100485.81
2022-11-07T10:37:34.337Z,100502.25
2022-11-07T10:40:17.751Z,100500.31
2022-11-07T10:42:49.539Z,100513.31
2022-11-07T10:45:26.467Z,100511.06
2022-11-07T10:48:34.086Z,100522.34
2022-11-07T10:51:10.136Z,100524.59
2022-11-07T10:53:48.932Z,100519.63
2022-11-07T10:56:20.499Z,100514.97
2022-11-07T10:59:28.997Z,100524.69
2022-11-07T11:02:10.892Z,100536.16
2022-11-07T11:04:49.597Z,100525.53
2022-11-07T11:07:27.187Z,100537.50
2022-11-07T11:10:02.129Z,100531.56
2022-11-07T11:13:07.365Z,100530.06
2022-11-07T11:15:49.078Z,100533.44
2022-11-07T11:18:21.462Z,100533.63
2022-11-07T11:21:13.147Z,100523.34
2022-11-07T11:23:43.658Z,100525.94
2022-11-07T11:26:30.001Z,100541.31
2022-11-07T11:29:12.902Z,100524.25
2022-11-07T11:31:47.971Z,100534.16
2022-11-07T11:34:41.525Z,100533.06
2022-11-07T11:37:25.327Z,100524.50
2022-11-07T11:40:10.963Z,100529.44
2022-11-07T11:42:45.218Z,100526.38
2022-11-07T11:45:32.337Z,100524.25
2022-11-07T11:48:22.405Z,100531.72
2022-11-07T11:50:55.979Z,100524.22
2022-11-07T11:53:35.815Z,100531.97
2022-11-07T11:56:22.154Z,100532.13
2022-11-07T11:58:56.496Z,100530.88
2022-11-07T12:01:35.119Z,100540.97
2022-11-07T12:04:29.982Z,100546.22
2022-11-07T12:10:10.790Z,100546.78
2022-11-07T12:13:06.909Z,100553.88
2022-11-07T12:16:10.664Z,100549.25
2022-11-07T12:18:57.388Z,100550.59
2022-11-07T12:22:05.514Z,100560.38
2022-11-07T12:24:46.006Z,100550.00
2022-11-07T12:27:42.890Z,100560.84
2022-11-07T12:30:30.332Z,100569.88
2022-11-07T12:33:20.674Z,100554.78
2022-11-07T12:36:06.790Z,100552.69
2022-11-07T12:38:51.168Z,100565.63
2022-11-07T12:41:39.772Z,100558.91
2022-11-07T12:44:29.909Z,100556.44
2022-11-07T12:50:23.653Z,100545.81
2022-11-07T12:53:13.689Z,100551.59
2022-11-07T12:55:54.589Z,100541.81
2022-11-07T12:58:28.313Z,100542.44
2022-11-07T13:00:57.415Z,100536.34
2022-11-07T13:03:31.041Z,100535.97
2022-11-07T13:06:23.395Z,100533.44
2022-11-07T13:09:09.329Z,100525.34
2022-11-07T13:12:06.305Z,100526.00
2022-11-07T13:14:35.248Z,100530.44
2022-11-07T13:17:12.382Z,100524.59
2022-11-07T13:19:45.469Z,100520.16
2022-11-07T13:22:25.253Z,100514.59
2022-11-07T13:25:16.741Z,100502.06
2022-11-07T13:27:48.123Z,100509.25
2022-11-07T13:30:17.515Z,100509.97
2022-11-07T13:32:47.613Z,100519.63
2022-11-07T13:35:23.690Z,100505.78
2022-11-07T13:38:08.923Z,100503.25
2022-11-07T13:40:48.967Z,100511.59
2022-11-07T13:43:24.456Z,100506.41
2022-11-07T13:45:55.757Z,100509.41
2022-11-07T13:48:44.229Z,100503.69
2022-11-07T13:51:23.041Z,100506.97
2022-11-07T13:54:12.487Z,100506.13
2022-11-07T13:57:11.051Z,100502.59
2022-11-07T13:59:53.787Z,100512.69
2022-11-07T14:02:33.998Z,100506.25
2022-11-07T14:05:18.524Z,100505.53
2022-11-07T14:07:54.526Z,100511.72
2022-11-07T14:10:35.123Z,100516.16
2022-11-07T14:13:09.783Z,100502.13
2022-11-07T14:15:47.371Z,100507.41
2022-11-07T14:18:19.767Z,100500.69
2022-11-07T14:20:57.196Z,100496.22
2022-11-07T14:23:29.211Z,100482.59
2022-11-07T14:26:18.783Z,100499.22
2022-11-07T14:28:48.425Z,100490.09
2022-11-07T14:31:28.367Z,100494.34
2022-11-07T14:34:04.438Z,100491.16
2022-11-07T14:36:33.334Z,100483.88
2022-11-07T14:39:05.168Z,100487.44
2022-11-07T14:41:42.346Z,100479.00
2022-11-07T14:44:17.754Z,100483.31
2022-11-07T14:46:48.226Z,100477.06
2022-11-07T14:49:48.801Z,100480.69
2022-11-07T14:53:17.929Z,100479.06
2022-11-07T14:56:04.493Z,100474.97
2022-11-07T14:58:43.730Z,100472.97
2022-11-07T15:08:09.751Z,100468.78
2022-11-07T15:14:39.830Z,100468.72
2022-11-07T15:20:57.251Z,100447.81
2022-11-07T15:23:47.289Z,100451.53
2022-11-07T15:26:39.794Z,100453.59
2022-11-07T15:29:35.144Z,100451.81
2022-11-07T15:33:06.544Z,100454.34
2022-11-07T15:39:05.831Z,100443.97
2022-11-07T15:41:51.573Z,100441.50
2022-11-07T15:44:58.720Z,100450.69
2022-11-07T15:47:55.798Z,100447.28
2022-11-07T15:51:05.769Z,100436.34
2022-11-07T15:56:48.575Z,100431.53
2022-11-07T15:59:47.598Z,100414.84
2022-11-07T16:03:04.017Z,100414.75
2022-11-07T16:06:21.869Z,100411.00
2022-11-07T16:11:50.994Z,100400.56
2022-11-07T16:17:30.125Z,100395.13
2022-11-07T16:20:01.505Z,100379.81
2022-11-07T16:22:32.692Z,100391.25
2022-11-07T16:25:15.050Z,100384.94
2022-11-07T16:28:00.966Z,100371.31
2022-11-07T16:30:28.512Z,100375.34
2022-11-07T16:32:56.258Z,100355.78
2022-11-07T16:35:25.321Z,100348.41
2022-11-07T16:37:52.112Z,100324.28
2022-11-07T16:40:20.281Z,100316.84
2022-11-07T16:42:47.727Z,100312.66
2022-11-07T16:45:19.396Z,100305.72
2022-11-07T16:47:46.473Z,100295.94
2022-11-07T16:50:15.529Z,100273.59
2022-11-07T16:52:45.944Z,100269.75
2022-11-07T16:55:17.902Z,100267.78
2022-11-07T16:57:45.944Z,100269.75
2022-11-07T17:00:22.135Z,100264.34
2022-11-07T17:02:50.491Z,100259.06
2022-11-07T17:05:17.901Z,100260.84
2022-11-07T17:07:46.320Z,100254.34
2022-11-07T17:10:17.049Z,100259.25
2022-11-07T17:12:43.868Z,100253.69
2022-11-07T17:15:14.204Z,100241.94
2022-11-07T17:17:41.251Z,100225.59
2022-11-07T17:20:41.084Z,100225.50
2022-11-07T17:23:19.053Z,100215.09
2022-11-07T17:26:02.645Z,100206.00
2022-11-07T17:31:49.903Z,100167.16
2022-11-07T17:34:16.740Z,100158.16
2022-11-07T17:36:51.891Z,100146.91
2022-11-07T17:39:35.714Z,100136.91
2022-11-07T17:42:04.907Z,100126.56
2022-11-07T17:44:34.879Z,100108.13
2022-11-07T17:47:05.374Z,100108.06
2022-11-07T17:49:38.951Z,100098.63
2022-11-07T17:52:09.949Z,100094.47
2022-11-07T17:54:37.334Z,100079.41
2022-11-07T17:57:15.854Z,100075.69
2022-11-07T17:59:46.105Z,100067.22
2022-11-07T18:02:19.076Z,100062.50
2022-11-07T18:04:46.885Z,100063.22
2022-11-07T18:07:19.236Z,100055.78
2022-11-07T18:09:49.981Z,100046.59
2022-11-07T18:12:16.925Z,100046.34
2022-11-07T18:14:45.590Z,100055.78
2022-11-07T18:17:13.776Z,100041.16
2022-11-07T18:19:44.093Z,100032.75
2022-11-07T18:22:12.143Z,100040.47
2022-11-07T18:24:40.622Z,100036.00
2022-11-07T18:27:10.501Z,100033.88
2022-11-07T18:29:41.903Z,100021.75
2022-11-07T18:32:09.482Z,100026.72
2022-11-07T18:34:36.639Z,100016.59
2022-11-07T18:40:12.440Z,100022.56
2022-11-07T18:42:46.495Z,100013.28
2022-11-07T18:45:17.211Z,100018.25
2022-11-07T18:47:50.398Z,100025.44
2022-11-07T18:50:23.814Z,100022.13
2022-11-07T18:53:00.471Z,100020.25
2022-11-07T18:55:29.265Z,100019.84
2022-11-07T18:58:03.095Z,100025.00
2022-11-07T19:00:30.468Z,100024.47
2022-11-07T19:02:58.841Z,100030.59
2022-11-07T19:05:51.666Z,100022.56
2022-11-07T19:08:19.490Z,100020.31
2022-11-07T19:10:48.567Z,100027.28
2022-11-07T19:13:15.439Z,100022.41
2022-11-07T19:15:42.911Z,100030.13
2022-11-07T19:18:11.835Z,100030.56
2022-11-07T19:20:40.137Z,100024.97
2022-11-07T19:23:08.427Z,100035.59
2022-11-07T19:25:42.852Z,100022.44
2022-11-07T19:28:10.936Z,100028.28
2022-11-07T19:30:40.577Z,100025.03
2022-11-07T19:33:12.982Z,100030.88
2022-11-07T19:35:42.065Z,100040.34
2022-11-07T19:38:11.609Z,100037.22
2022-11-07T19:40:40.264Z,100036.78
2022-11-07T19:43:17.803Z,100048.94
2022-11-07T19:45:45.748Z,100037.19
2022-11-07T19:48:14.005Z,100036.38
2022-11-07T19:50:40.963Z,100032.16
2022-11-07T19:53:09.383Z,100031.72
2022-11-07T19:55:40.751Z,100022.84
2022-11-07T19:58:13.517Z,100017.97
2022-11-07T20:00:40.961Z,100007.66
2022-11-07T20:03:09.954Z,99999.34
2022-11-07T20:05:39.765Z,100008.53
2022-11-07T20:08:08.046Z,100003.66
2022-11-07T20:10:37.147Z,100004.06
2022-11-07T20:13:06.169Z,100004.22
2022-11-07T20:15:35.434Z,100013.38
2022-11-07T20:18:04.297Z,100013.78
2022-11-07T20:20:34.342Z,100015.09
2022-11-07T20:23:02.055Z,100002.78
2022-11-07T20:25:37.902Z,99997.03
2022-11-07T20:28:19.851Z,100016.69
2022-11-07T20:31:18.135Z,100006.63
2022-11-07T20:33:59.712Z,100004.75
2022-11-07T20:36:26.974Z,99995.00
2022-11-07T20:39:01.280Z,99987.72
2022-11-07T20:41:31.345Z,99984.97
2022-11-07T20:44:07.408Z,99975.53
2022-11-07T20:46:39.461Z,99975.22
2022-11-07T20:49:14.536Z,99965.06
2022-11-07T20:51:42.603Z,99961.19
2022-11-07T20:54:13.297Z,99964.06
2022-11-07T20:56:42.272Z,99942.13
2022-11-07T20:59:11.269Z,99941.13
2022-11-07T21:01:39.762Z,99932.97
2022-11-07T21:04:17.026Z,99924.66
2022-11-07T21:06:45.190Z,99916.63
2022-11-07T21:09:12.416Z,99903.31
2022-11-07T21:11:39.473Z,99905.59
2022-11-07T21:14:08.698Z,99900.28
2022-11-07T21:16:37.022Z,99898.84
2022-11-07T21:19:15.081Z,99907.31
2022-11-07T21:21:42.148Z,99895.84
2022-11-07T21:24:13.590Z,99897.28
2022-11-07T21:26:41.343Z,99898.16
2022-11-07T21:29:10.710Z,99890.25
2022-11-07T21:31:43.873Z,99892.69
2022-11-07T21:34:13.678Z,99892.13
2022-11-07T21:36:41.166Z,99889.56
2022-11-07T21:39:09.371Z,99879.38
2022-11-07T21:41:39.966Z,99869.50
2022-11-07T21:44:11.538Z,99860.56
2022-11-07T21:46:39.719Z,99865.31
2022-11-07T21:49:08.292Z,99862.75
2022-11-07T21:51:36.732Z,99857.56
2022-11-07T21:54:05.953Z,99855.41
2022-11-07T21:56:37.620Z,99845.50
2022-11-07T21:59:10.106Z,99847.81
2022-11-07T22:01:40.207Z,99836.03
2022-11-07T22:04:12.953Z,99843.31
2022-11-07T22:06:45.887Z,99842.50
2022-11-07T22:09:16.046Z,99842.31
2022-11-07T22:11:45.545Z,99848.38
2022-11-07T22:14:19.626Z,99830.03
2022-11-07T22:16:47.939Z,99833.91
2022-11-07T22:19:16.474Z,99844.94
2022-11-07T22:21:45.477Z,99852.28
2022-11-07T22:24:15.040Z,99838.47
2022-11-07T22:26:45.945Z,99833.63
2022-11-07T22:29:14.306Z,99826.75
2022-11-07T22:31:42.628Z,99834.78
2022-11-07T22:34:14.283Z,99821.00
2022-11-07T22:36:48.692Z,99823.31
2022-11-07T22:39:17.393Z,99810.84
2022-11-07T22:41:51.557Z,99799.66
2022-11-07T22:44:31.207Z,99808.16
2022-11-07T22:47:10.413Z,99779.88
2022-11-07T22:50:15.335Z,99771.88
2022-11-07T22:52:53.100Z,99766.91
2022-11-07T22:56:44.590Z,99787.03
2022-11-07T22:59:27.166Z,99783.38
2022-11-07T23:08:36.163Z,99764.72
2022-11-07T23:11:47.955Z,99760.00
2022-11-07T23:14:33.848Z,99761.72
2022-11-07T23:20:04.285Z,99756.44
2022-11-07T23:22:38.133Z,99752.81
2022-11-07T23:25:13.081Z,99753.53
2022-11-07T23:27:45.718Z,99756.00
2022-11-07T23:32:57.286Z,99744.41
2022-11-07T23:35:27.048Z,99738.25
2022-11-07T23:38:06.613Z,99737.84
2022-11-07T23:40:54.235Z,99730.63
2022-11-07T23:46:35.086Z,99725.00
2022-11-07T23:49:21.108Z,99720.34
2022-11-07T23:52:03.182Z,99719.31
2022-11-07T23:54:58.833Z,99704.81
2022-11-07T23:58:10.044Z,99703.69
